createdAt,value
2022-11-19T00:01:41.917Z,13.63
2022-11-19T00:06:51.340Z,13.40
2022-11-19T00:12:00.894Z,14.30
2022-11-19T00:17:08.811Z,13.27
2022-11-19T00:22:29.417Z,13.90
2022-11-19T00:27:45.599Z,14.43
2022-11-19T00:33:17.241Z,17.90
2022-11-19T00:38:46.878Z,14.83
2022-11-19T00:43:58.595Z,15.33
2022-11-19T06:45:44.579Z,8.90
2022-11-19T06:50:52.741Z,10.57
2022-11-19T06:56:01.699Z,10.60
2022-11-19T07:01:09.870Z,10.73
2022-11-19T07:06:17.563Z,11.97
2022-11-19T07:11:26.373Z,14.40
2022-11-19T07:16:35.749Z,15.83
2022-11-19T07:21:43.852Z,14.60
2022-11-19T07:26:51.436Z,15.33
2022-11-19T07:31:59.017Z,16.83
2022-11-19T07:37:07.055Z,19.37
2022-11-19T07:42:16.194Z,18.40
2022-11-19T07:47:23.707Z,22.90
2022-11-19T07:52:32.802Z,24.10
2022-11-19T07:57:40.343Z,23.07
2022-11-19T08:02:47.951Z,20.17
2022-11-19T08:07:55.463Z,20.70
2022-11-19T08:13:04.105Z,17.40
2022-11-19T08:18:13.941Z,21.13
2022-11-19T08:23:22.039Z,20.00
2022-11-19T08:28:30.537Z,16.60
2022-11-19T08:33:38.672Z,17.03
2022-11-19T08:38:46.480Z,14.83
2022-11-19T08:43:53.993Z,12.90
2022-11-19T08:49:02.273Z,13.60
2022-11-19T08:54:10.167Z,16.07
2022-11-19T08:59:21.001Z,17.87
2022-11-19T09:04:28.719Z,13.47
2022-11-19T09:09:36.617Z,14.17
2022-11-19T09:14:44.152Z,14.43
2022-11-19T09:19:51.812Z,12.67
2022-11-19T09:24:59.891Z,14.17
2022-11-19T17:13:25.921Z,10.87
2022-11-19T17:18:36.619Z,10.37
2022-11-19T17:23:51.394Z,10.17
2022-11-19T17:29:11.214Z,11.87
2022-11-19T17:34:25.241Z,11.10
2022-11-19T17:39:33.170Z,14.80
2022-11-19T17:44:41.197Z,14.87
2022-11-19T17:49:49.427Z,11.73
2022-11-19T17:55:00.120Z,10.93
2022-11-19T18:00:08.695Z,11.47
2022-11-19T18:05:19.321Z,12.90
2022-11-19T18:10:27.044Z,14.67
2022-11-19T18:15:36.087Z,18.63
2022-11-19T18:20:44.300Z,20.20
2022-11-19T18:25:53.027Z,20.63
2022-11-19T18:31:02.035Z,16.87
2022-11-19T18:36:11.320Z,18.33
2022-11-19T18:41:21.853Z,18.97
2022-11-19T18:46:29.614Z,21.47
2022-11-19T18:51:37.283Z,20.63
2022-11-19T18:56:46.674Z,21.53
2022-11-19T19:01:56.112Z,21.67
2022-11-19T19:07:04.139Z,20.87
2022-11-19T19:12:18.543Z,22.73
2022-11-19T19:17:26.509Z,22.67
2022-11-19T19:22:35.358Z,21.67
2022-11-19T19:27:44.501Z,22.37
2022-11-19T19:32:53.901Z,22.10
2022-11-19T19:38:02.505Z,21.20
2022-11-19T19:43:10.488Z,22.83
2022-11-19T19:48:19.661Z,21.20
2022-11-19T19:53:28.027Z,21.23
2022-11-19T19:58:36.188Z,22.80
2022-11-19T20:03:44.981Z,24.47
2022-11-19T20:08:54.563Z,19.63
2022-11-19T20:14:02.360Z,22.10
2022-11-19T20:19:12.173Z,24.60
2022-11-19T20:24:22.294Z,25.43
2022-11-19T20:29:32.557Z,30.97
2022-11-19T20:34:42.496Z,32.47
2022-11-19T20:39:51.169Z,33.13
2022-11-19T20:45:00.216Z,30.47
2022-11-19T20:50:08.550Z,26.03
2022-11-19T20:55:16.378Z,27.87
2022-11-19T21:00:24.450Z,30.40
2022-11-19T21:05:32.156Z,26.77
2022-11-19T21:10:40.281Z,31.67
2022-11-19T21:15:48.366Z,34.63
2022-11-19T21:21:03.268Z,38.60
2022-11-19T21:26:14.441Z,34.17
2022-11-19T21:31:24.373Z,30.90
2022-11-19T21:36:33.912Z,29.50
2022-11-19T21:41:42.247Z,31.37
2022-11-19T21:46:50.395Z,27.57
2022-11-19T21:51:58.785Z,27.00
2022-11-19T21:57:07.850Z,28.93
2022-11-19T22:02:15.817Z,28.07
2022-11-19T22:07:27.121Z,25.17
2022-11-19T22:12:35.485Z,27.43
2022-11-19T22:17:43.705Z,26.93
2022-11-19T22:22:51.640Z,28.53
2022-11-19T22:28:00.425Z,28.67
2022-11-19T22:33:08.259Z,24.90
2022-11-19T22:38:18.042Z,28.57
2022-11-19T22:49:09.697Z,29.73
2022-11-19T22:54:19.160Z,32.07
2022-11-19T22:59:27.326Z,27.93
2022-11-19T23:04:36.689Z,34.27
2022-11-19T23:09:44.279Z,34.70
2022-11-19T23:14:53.655Z,32.03
2022-11-19T23:20:04.626Z,29.50
2022-11-19T23:25:10.825Z,27.17
2022-11-19T23:30:19.225Z,25.07
2022-11-19T23:35:27.888Z,24.80
2022-11-19T23:40:36.667Z,25.50
2022-11-19T23:45:44.525Z,30.70
2022-11-19T23:50:52.318Z,30.03
2022-11-19T23:56:00.181Z,30.07
